EBAW

Antwerp International (Deurne) Airport

Antwerp, Belgium
METAR EBAW 232220Z AUTO 07010KT CAVOK M01/M07 Q1020
Observed Flight Rules
Feb-23 @ 22:20 UTC (18 minutes ago) Visual Flight Rules
Wind Visibility Clouds
70° at 10 knots 10,000+ meters
  • Clear skies
Temperatures Readings
Current -1°C / 30°F
Dewpoint -7°C / 19°F
Humidity 64%
Altimeter 30.12" Hg
Pressure 1020 hPa
Elevation 14
METAR EBAW 232220Z AUTO 07010KT CAVOK M01/M07 Q1020
Observed Flight Rules
Feb-23 @ 22:20 UTC
(18 minutes ago)
VFR
Wind Visibility
70° at 10 knots 10,000+ meters
Clouds
  • Clear skies
Temperature Dewpoint
-1°C / 30°F -7°C / 19°F
Humidity Altimeter Pressure
64% 30.12" Hg 1020 hPa